Time;durP1;ratioP1;P1;durP2;ratioP2;P2;SDS_P1;SDS_P2;PMS_P1;PMS_P2;Temp;Humidity;BMP_temperature;BMP_pressure;BME280_temperature;BME280_humidity;BME280_pressure;Samples;Min_cycle;Max_cycle;Signal;HPM_P1;HPM_P2
2022/11/14 00:00:50;;;;;;;;;35.67;33.00;;;;;9.88;100.00;100709.38;6260650;22;47051;-84
2022/11/14 00:03:16;;;;;;;;;41.33;36.00;;;;;9.81;100.00;100709.25;6259501;22;45321;-83
2022/11/14 00:05:43;;;;;;;;;40.33;34.33;;;;;9.75;100.00;100708.28;6287691;22;44802;-83
2022/11/14 00:08:24;;;;;;;;;35.67;33.00;;;;;9.75;100.00;100719.78;6286534;22;45255;-83
2022/11/14 00:10:50;;;;;;;;;31.67;29.00;;;;;9.69;100.00;100714.38;6288328;22;45408;-83
2022/11/14 00:13:18;;;;;;;;;30.33;28.67;;;;;9.65;100.00;100717.84;6287295;22;45373;-83
2022/11/14 00:15:44;;;;;;;;;36.00;33.00;;;;;9.61;100.00;100710.69;6288415;22;45625;-84
2022/11/14 00:18:09;;;;;;;;;37.00;33.00;;;;;9.58;100.00;100706.22;6261871;22;45473;-83
2022/11/14 00:20:35;;;;;;;;;32.67;29.00;;;;;9.45;100.00;100692.69;6287146;22;47736;-83
2022/11/14 00:23:02;;;;;;;;;37.00;32.67;;;;;9.48;100.00;100706.94;6287328;22;45356;-84
2022/11/14 00:25:29;;;;;;;;;38.33;33.67;;;;;9.46;100.00;100705.13;6259416;22;45456;-83
2022/11/14 00:27:58;;;;;;;;;34.00;30.33;;;;;9.43;100.00;100691.78;6286435;22;45474;-84
2022/11/14 00:30:24;;;;;;;;;34.33;31.00;;;;;9.36;100.00;100689.00;6258301;22;47298;-84
2022/11/14 00:32:55;;;;;;;;;39.33;36.00;;;;;9.41;100.00;100703.28;6284454;22;45315;-84
2022/11/14 00:35:21;;;;;;;;;39.33;32.67;;;;;9.43;100.00;100700.63;6298692;22;45336;-84
2022/11/14 00:37:47;;;;;;;;;32.67;26.00;;;;;9.39;100.00;100696.13;6290454;22;44895;-84
2022/11/14 00:40:13;;;;;;;;;32.67;30.67;;;;;9.31;100.00;100676.53;6290844;22;46989;-84
2022/11/14 00:42:39;;;;;;;;;39.67;35.33;;;;;9.36;100.00;100689.00;6289974;22;45317;-84
2022/11/14 00:45:05;;;;;;;;;40.00;36.00;;;;;9.32;100.00;100673.91;6289756;22;45346;-84
2022/11/14 00:47:30;;;;;;;;;44.33;40.33;;;;;9.38;100.00;100689.94;6288432;22;45551;-84
2022/11/14 00:49:56;;;;;;;;;55.00;42.33;;;;;9.35;100.00;100691.63;6317019;22;45091;-84
2022/11/14 00:52:25;;;;;;;;;44.00;34.33;;;;;9.24;100.00;100670.22;6289140;22;45329;-84
2022/11/14 00:54:50;;;;;;;;;39.33;37.00;;;;;9.34;100.00;100688.09;6317144;22;45271;-84
2022/11/14 00:57:16;;;;;;;;;47.00;38.00;;;;;9.27;100.00;100667.63;6289801;22;45250;-84
2022/11/14 00:59:41;;;;;;;;;50.50;41.00;;;;;9.33;100.00;100686.31;6287193;22;46951;-84
2022/11/14 01:02:07;;;;;;;;;46.00;38.67;;;;;9.29;100.00;100681.81;6288863;22;45266;-84
2022/11/14 01:04:32;;;;;;;;;50.00;37.67;;;;;9.30;100.00;100686.25;6318738;22;45625;-84
2022/11/14 01:06:58;;;;;;;;;46.33;39.33;;;;;9.28;100.00;100677.38;6291444;22;45234;-84
2022/11/14 01:09:24;;;;;;;;;43.00;37.67;;;;;9.25;100.00;100666.72;6291381;22;48167;-84
2022/11/14 01:11:50;;;;;;;;;47.00;39.00;;;;;9.25;100.00;100672.03;6290711;22;45329;-84
2022/11/14 01:14:15;;;;;;;;;44.33;38.00;;;;;9.22;100.00;100666.66;6289901;22;45489;-84
2022/11/14 01:16:41;;;;;;;;;48.33;40.00;;;;;9.16;100.00;100663.88;6289273;22;44910;-84
2022/11/14 01:19:06;;;;;;;;;39.67;37.33;;;;;9.14;100.00;100662.97;6289803;22;46932;-84
2022/11/14 01:21:32;;;;;;;;;49.67;40.33;;;;;9.07;100.00;100661.97;6290489;22;45292;-84
2022/11/14 01:23:57;;;;;;;;;46.00;37.67;;;;;9.08;100.00;100666.38;6318013;22;45609;-83
2022/11/14 01:26:26;;;;;;;;;50.67;41.00;;;;;9.11;100.00;100670.84;6318642;22;45517;-83
2022/11/14 01:28:52;;;;;;;;;45.00;39.00;;;;;9.03;100.00;100657.47;6316896;22;46373;-83
2022/11/14 01:31:32;;;;;;;;;53.00;42.00;;;;;9.14;100.00;100671.81;6287711;22;45290;-82
2022/11/14 01:33:58;;;;;;;;;48.00;39.33;;;;;9.16;100.00;100667.41;6317753;22;45465;-84
2022/11/14 01:36:31;;;;;;;;;48.67;38.33;;;;;9.13;100.00;100647.88;6263588;22;45555;-83
2022/11/14 01:39:00;;;;;;;;;47.33;39.00;;;;;9.16;100.00;100648.84;6256531;22;46559;-83
2022/11/14 01:41:25;;;;;;;;;52.00;44.00;;;;;9.20;100.00;100647.16;6258202;22;45383;-84
2022/11/14 01:43:51;;;;;;;;;52.67;42.67;;;;;9.21;100.00;100641.00;6285349;22;45227;-81
2022/11/14 01:46:30;;;;;;;;;48.67;42.00;;;;;9.15;100.00;100632.88;6258038;22;45515;-83
2022/11/14 01:49:24;;;;;;;;;54.00;41.67;;;;;9.28;100.00;100634.91;6284024;22;46748;-83
2022/11/14 01:52:12;;;;;;;;;48.67;40.00;;;;;9.35;100.00;100623.53;6273747;22;45497;-83
2022/11/14 01:54:42;;;;;;;;;47.00;38.00;;;;;9.38;100.00;100622.69;6285801;22;45370;-83
2022/11/14 01:57:14;;;;;;;;;54.33;42.67;;;;;9.40;100.00;100605.03;6284309;22;44871;-83
2022/11/14 01:59:45;;;;;;;;;52.00;41.67;;;;;9.45;100.00;100621.91;6285675;22;45337;-83
2022/11/14 02:02:18;;;;;;;;;48.00;39.33;;;;;9.51;100.00;100629.09;6258078;22;45365;-82
2022/11/14 02:05:03;;;;;;;;;51.33;41.67;;;;;9.57;100.00;100630.09;6284783;22;45352;-83
2022/11/14 02:07:33;;;;;;;;;43.33;38.67;;;;;9.53;100.00;100611.44;6257568;22;45596;-84
2022/11/14 02:10:02;;;;;;;;;48.67;40.33;;;;;9.64;100.00;100636.41;6284237;22;45575;-84
2022/11/14 02:12:32;;;;;;;;;49.33;41.00;;;;;9.57;100.00;100629.19;6256426;22;45337;-83
2022/11/14 02:14:58;;;;;;;;;47.00;37.33;;;;;9.49;100.00;100630.81;6256085;22;44814;-83
2022/11/14 02:17:25;;;;;;;;;40.33;38.33;;;;;9.43;100.00;100636.03;6284352;22;45414;-82
2022/11/14 02:19:53;;;;;;;;;42.67;37.67;;;;;9.30;100.00;100630.53;6283812;22;45460;-83
2022/11/14 02:22:19;;;;;;;;;42.67;38.33;;;;;9.25;100.00;100633.94;6287793;22;45392;-84
2022/11/14 02:24:45;;;;;;;;;52.67;41.67;;;;;9.19;100.00;100632.09;6286686;22;45405;-82
2022/11/14 02:27:12;;;;;;;;;41.00;35.33;;;;;9.20;100.00;100629.47;6284231;22;45518;-84
2022/11/14 02:29:41;;;;;;;;;53.67;39.67;;;;;9.23;100.00;100635.69;6285698;22;45811;-83
2022/11/14 02:32:08;;;;;;;;;48.33;39.67;;;;;9.21;100.00;100630.38;6283953;22;45752;-83
2022/11/14 02:34:34;;;;;;;;;45.33;38.33;;;;;9.29;100.00;100623.44;6285641;22;45373;-83
2022/11/14 02:36:59;;;;;;;;;40.67;38.00;;;;;9.25;100.00;100623.34;6287354;22;45512;-84
2022/11/14 02:39:25;;;;;;;;;44.00;38.33;;;;;9.28;100.00;100620.75;6315570;22;45308;-82
2022/11/14 02:41:52;;;;;;;;;36.33;33.00;;;;;9.30;100.00;100619.91;6316376;22;45721;-83
2022/11/14 02:44:18;;;;;;;;;39.00;36.00;;;;;9.20;100.00;100602.03;6288262;22;45509;-83
2022/11/14 02:46:44;;;;;;;;;37.00;32.00;;;;;9.23;100.00;100599.44;6289155;22;45459;-83
2022/11/14 02:49:09;;;;;;;;;33.33;31.67;;;;;9.24;100.00;100597.69;6316631;22;45455;-84
2022/11/14 02:51:35;;;;;;;;;32.67;29.33;;;;;9.23;100.00;100618.03;6318109;22;45478;-84
2022/11/14 02:54:03;;;;;;;;;31.33;27.33;;;;;9.18;100.00;100614.38;6317757;22;45232;-83
2022/11/14 02:56:32;;;;;;;;;28.33;27.33;;;;;9.12;100.00;100607.22;6289345;22;45568;-83
2022/11/14 02:59:03;;;;;;;;;32.67;28.67;;;;;9.13;100.00;100602.78;6288482;22;46798;-83
2022/11/14 03:04:50;;;;;;;;;25.67;23.67;;;;;9.13;100.00;100593.09;6318106;22;45342;-83
2022/11/14 03:07:16;;;;;;;;;31.33;23.67;;;;;9.08;100.00;100594.75;6293601;22;45329;-84
2022/11/14 03:09:42;;;;;;;;;21.33;20.00;;;;;9.07;100.00;100594.72;6291821;22;45488;-83
2022/11/14 03:12:08;;;;;;;;;25.00;22.33;;;;;9.07;100.00;100579.72;6291602;22;45254;-83
2022/11/14 03:14:36;;;;;;;;;34.33;29.33;;;;;9.05;100.00;100575.22;6320326;22;45336;-84
2022/11/14 03:17:02;;;;;;;;;28.33;26.00;;;;;9.15;100.00;100582.47;6292273;22;45354;-83
2022/11/14 03:19:28;;;;;;;;;23.00;22.33;;;;;9.08;100.00;100580.59;6319047;22;45404;-83
2022/11/14 03:21:53;;;;;;;;;35.33;31.67;;;;;9.04;100.00;100569.03;6319853;22;45408;-84
2022/11/14 03:24:19;;;;;;;;;29.67;25.00;;;;;9.06;100.00;100577.91;6291911;22;45381;-83
2022/11/14 03:26:44;;;;;;;;;32.67;27.33;;;;;9.02;100.00;100576.06;6291850;22;45349;-83
2022/11/14 03:29:10;;;;;;;;;31.33;28.00;;;;;8.98;100.00;100575.13;6319984;22;45437;-83
2022/11/14 03:31:36;;;;;;;;;31.33;29.67;;;;;9.08;100.00;100588.56;6319387;22;45388;-83
2022/11/14 03:34:02;;;;;;;;;28.00;26.33;;;;;9.07;100.00;100586.75;6291757;22;44737;-83
2022/11/14 03:36:27;;;;;;;;;32.00;27.00;;;;;9.10;100.00;100584.19;6320342;22;44756;-83
2022/11/14 03:38:56;;;;;;;;;31.00;26.00;;;;;9.11;100.00;100580.63;6292360;22;47371;-83
2022/11/14 03:42:01;;;;;;;;;26.33;23.67;;;;;9.11;100.00;100592.16;6292407;22;45409;-83
2022/11/14 03:44:29;;;;;;;;;28.33;25.33;;;;;9.02;100.00;100576.06;6316844;22;45463;-83
2022/11/14 03:46:58;;;;;;;;;25.33;23.00;;;;;9.02;100.00;100584.91;6290339;22;45771;-83
2022/11/14 03:49:29;;;;;;;;;28.33;26.67;;;;;8.86;100.00;100553.69;6289799;22;48165;-83
2022/11/14 03:51:55;;;;;;;;;26.00;25.67;;;;;8.96;100.00;100568.91;6290373;22;45516;-83
2022/11/14 03:54:20;;;;;;;;;27.67;21.67;;;;;8.87;100.00;100558.16;6290262;22;45362;-84
2022/11/14 03:56:46;;;;;;;;;32.00;26.00;;;;;8.95;100.00;100564.47;6291468;22;45441;-84
2022/11/14 03:59:15;;;;;;;;;32.33;31.67;;;;;8.97;100.00;100559.22;6318632;22;46066;-83
2022/11/14 04:01:41;;;;;;;;;32.00;26.00;;;;;8.88;100.00;100536.03;6289751;22;45494;-84
2022/11/14 04:04:12;;;;;;;;;28.33;25.00;;;;;8.96;100.00;100566.25;6290563;22;45452;-84
2022/11/14 04:06:38;;;;;;;;;27.67;27.00;;;;;8.85;100.00;100545.69;6292513;22;45374;-84
2022/11/14 04:09:05;;;;;;;;;32.00;28.33;;;;;8.85;100.00;100556.31;6318434;22;45496;-84
2022/11/14 04:11:31;;;;;;;;;32.33;28.33;;;;;8.80;100.00;100557.13;6320203;22;44770;-84
2022/11/14 04:13:59;;;;;;;;;32.00;29.00;;;;;8.85;100.00;100561.59;6289995;22;45447;-84
2022/11/14 04:16:28;;;;;;;;;28.67;26.33;;;;;8.84;100.00;100571.31;6290561;22;45413;-84
2022/11/14 04:18:53;;;;;;;;;33.67;26.33;;;;;8.85;100.00;100566.91;6318099;22;45425;-84
2022/11/14 04:21:19;;;;;;;;;27.00;25.33;;;;;8.89;100.00;100561.72;6290788;22;45365;-84
2022/11/14 04:23:45;;;;;;;;;28.00;25.33;;;;;8.99;100.00;100565.44;6290312;22;45514;-84
2022/11/14 04:26:10;;;;;;;;;28.00;23.33;;;;;9.04;100.00;100568.16;6290746;22;45219;-84
2022/11/14 04:28:36;;;;;;;;;24.67;22.67;;;;;9.01;100.00;100569.88;6291148;22;47418;-82
2022/11/14 04:31:01;;;;;;;;;24.33;24.00;;;;;8.93;100.00;100554.72;6289671;22;45431;-83
2022/11/14 04:33:27;;;;;;;;;28.67;25.67;;;;;9.01;100.00;100574.31;6289156;22;45503;-82
2022/11/14 04:35:53;;;;;;;;;20.67;10.67;;;;;9.04;100.00;100574.34;6316960;22;45629;-83
2022/11/14 04:38:18;;;;;;;;;28.33;26.00;;;;;9.04;100.00;100578.75;6318003;22;46047;-83
2022/11/14 04:40:51;;;;;;;;;36.67;32.00;;;;;9.01;100.00;100561.94;6289425;22;45400;-83
2022/11/14 04:43:21;;;;;;;;;38.67;29.67;;;;;8.97;100.00;100573.34;6290274;22;45979;-83
2022/11/14 04:45:46;;;;;;;;;26.67;25.00;;;;;8.97;100.00;100568.03;6290463;22;45653;-83
2022/11/14 04:48:12;;;;;;;;;34.67;30.00;;;;;8.81;100.00;100536.81;6288628;22;47905;-83
2022/11/14 04:50:38;;;;;;;;;24.33;23.67;;;;;8.97;100.00;100560.09;6316002;22;44813;-83
2022/11/14 04:53:03;;;;;;;;;30.67;28.33;;;;;8.99;100.00;100552.16;6289988;22;45304;-83
2022/11/14 04:55:30;;;;;;;;;29.00;24.00;;;;;8.93;100.00;100547.63;6317820;22;45333;-83
2022/11/14 04:57:57;;;;;;;;;34.00;28.67;;;;;8.94;100.00;100552.06;6288786;22;46711;-83
2022/11/14 05:00:24;;;;;;;;;28.67;21.00;;;;;8.92;100.00;100539.66;6288385;22;44832;-83
2022/11/14 05:02:50;;;;;;;;;30.00;21.67;;;;;8.95;100.00;100553.88;6288988;22;44919;-83
2022/11/14 05:05:15;;;;;;;;;31.33;26.67;;;;;8.94;100.00;100541.47;6290793;22;44713;-83
2022/11/14 05:07:41;;;;;;;;;25.67;24.33;;;;;8.97;100.00;100536.22;6290060;22;47747;-83
2022/11/14 05:10:08;;;;;;;;;32.00;27.67;;;;;8.92;100.00;100527.28;6315740;22;45352;-83
2022/11/14 05:12:33;;;;;;;;;34.00;28.67;;;;;8.96;100.00;100530.88;6288392;22;45242;-83
2022/11/14 05:14:59;;;;;;;;;28.33;24.00;;;;;8.96;100.00;100531.75;6290257;22;45574;-83
2022/11/14 05:17:33;;;;;;;;;30.00;26.67;;;;;8.87;100.00;100510.41;6289440;22;46939;-83
2022/11/14 05:20:00;;;;;;;;;33.00;30.00;;;;;9.00;100.00;100530.94;6288180;22;46053;-83
2022/11/14 05:22:26;;;;;;;;;35.00;29.00;;;;;8.93;100.00;100513.16;6289267;22;45408;-83
2022/11/14 05:24:51;;;;;;;;;25.33;24.00;;;;;9.06;100.00;100519.56;6288984;22;45408;-82
2022/11/14 05:27:17;;;;;;;;;32.00;24.33;;;;;9.09;100.00;100529.31;6317053;22;45427;-82
2022/11/14 05:29:42;;;;;;;;;30.00;24.00;;;;;9.11;100.00;100527.56;6317003;22;44784;-83
2022/11/14 05:32:08;;;;;;;;;28.67;24.33;;;;;9.07;100.00;100510.75;6315913;22;45413;-83
2022/11/14 05:34:39;;;;;;;;;31.33;27.67;;;;;9.10;100.00;100509.91;6316402;22;45696;-83
2022/11/14 05:37:05;;;;;;;;;31.33;28.33;;;;;9.15;100.00;100518.81;6260923;22;46891;-83
2022/11/14 05:39:30;;;;;;;;;32.67;28.33;;;;;9.10;100.00;100504.59;6256001;22;45295;-83
2022/11/14 05:41:56;;;;;;;;;26.00;26.00;;;;;9.07;100.00;100508.09;6281842;22;45466;-83
2022/11/14 05:44:24;;;;;;;;;29.33;25.67;;;;;8.94;100.00;100488.41;6283155;22;45449;-83
2022/11/14 05:46:50;;;;;;;;;33.67;31.33;;;;;8.84;100.00;100469.69;6284580;22;45444;-83
2022/11/14 05:49:19;;;;;;;;;23.33;23.33;;;;;8.83;100.00;100468.78;6283009;22;45361;-83
2022/11/14 05:51:45;;;;;;;;;27.33;24.67;;;;;8.99;100.00;100496.47;6285524;22;45331;-83
2022/11/14 05:54:14;;;;;;;;;26.33;23.33;;;;;8.99;100.00;100488.50;6282922;22;45297;-84
2022/11/14 05:56:39;;;;;;;;;24.00;24.00;;;;;8.89;100.00;100478.63;6256854;22;46732;-84
2022/11/14 05:59:05;;;;;;;;;29.67;28.00;;;;;8.90;100.00;100494.53;6283756;22;44787;-84
2022/11/14 06:01:36;;;;;;;;;31.33;26.33;;;;;8.91;100.00;100488.38;6282078;22;45330;-82
2022/11/14 06:04:05;;;;;;;;;34.00;30.00;;;;;8.92;100.00;100479.53;6285405;22;45186;-83
2022/11/14 06:06:32;;;;;;;;;28.00;27.67;;;;;8.95;100.00;100479.59;6256589;22;46757;-83
2022/11/14 06:08:57;;;;;;;;;35.67;25.33;;;;;8.94;100.00;100467.19;6284818;22;45333;-83
2022/11/14 06:11:22;;;;;;;;;27.67;24.67;;;;;8.99;100.00;100477.91;6257701;22;45360;-83
2022/11/14 06:13:48;;;;;;;;;24.00;21.00;;;;;9.04;100.00;100476.19;6285400;22;45223;-84
2022/11/14 06:16:18;;;;;;;;;27.33;25.00;;;;;9.15;100.00;100476.34;6259663;22;46697;-83
2022/11/14 06:18:44;;;;;;;;;30.33;25.67;;;;;9.22;100.00;100486.22;6286573;22;45430;-83
2022/11/14 06:21:11;;;;;;;;;38.00;31.00;;;;;9.27;100.00;100480.97;6287349;22;45342;-82
2022/11/14 06:23:37;;;;;;;;;32.67;26.33;;;;;9.26;100.00;100485.38;6259179;22;45314;-82
2022/11/14 06:26:05;;;;;;;;;29.33;28.67;;;;;9.27;100.00;100487.19;6286764;22;45319;-86
2022/11/14 06:28:33;;;;;;;;;23.00;21.00;;;;;9.26;100.00;100488.03;6284684;22;45658;-84
2022/11/14 06:31:00;;;;;;;;;432.33;356.67;;;;;9.20;100.00;100464.06;6259014;22;45425;-84
2022/11/14 06:33:28;;;;;;;;;32.33;28.00;;;;;9.38;100.00;100472.28;6286374;22;45630;-85
2022/11/14 06:36:08;;;;;;;;;32.75;29.25;;;;;9.31;100.00;100482.78;5881591;22;8677977;-83
2022/11/14 06:38:36;;;;;;;;;28.00;23.33;;;;;9.26;100.00;100490.69;6302064;22;46314;-83
2022/11/14 06:44:23;;;;;;;;;23.00;22.67;;;;;9.18;100.00;100479.06;6318676;22;45267;-84
2022/11/14 06:46:49;;;;;;;;;19.33;18.33;;;;;9.20;100.00;100488.81;6290670;22;45564;-84
2022/11/14 06:49:14;;;;;;;;;23.67;20.67;;;;;9.14;100.00;100482.53;6290518;22;46830;-83
2022/11/14 06:51:59;;;;;;;;;26.33;22.33;;;;;9.15;100.00;100493.19;6292217;22;45378;-84
2022/11/14 06:54:36;;;;;;;;;24.33;23.00;;;;;9.13;100.00;100501.97;6317176;22;44762;-84
2022/11/14 06:57:02;;;;;;;;;27.33;25.33;;;;;9.09;100.00;100492.19;6290720;22;45773;-84
2022/11/14 06:59:30;;;;;;;;;24.67;21.00;;;;;9.15;100.00;100510.84;6318521;22;46075;-84
2022/11/14 07:01:56;;;;;;;;;24.67;20.00;;;;;9.14;100.00;100514.38;6318854;22;45187;-84
2022/11/14 07:07:45;;;;;;;;;24.33;22.67;;;;;9.18;100.00;100511.78;6319602;22;45720;-83
2022/11/14 07:10:10;;;;;;;;;20.00;18.00;;;;;9.21;100.00;100514.50;6318764;22;47106;-81
2022/11/14 07:12:36;;;;;;;;;16.67;15.00;;;;;9.22;100.00;100504.78;6289418;22;45356;-84
2022/11/14 07:15:01;;;;;;;;;24.00;16.33;;;;;9.29;100.00;100517.28;6289816;22;44984;-84
2022/11/14 07:17:26;;;;;;;;;19.67;16.67;;;;;9.29;100.00;100517.28;6266410;22;45159;-83
2022/11/14 07:19:54;;;;;;;;;16.67;16.00;;;;;9.28;100.00;100519.91;6319484;22;45235;-83
2022/11/14 07:22:39;;;;;;;;;13.00;13.00;;;;;9.27;100.00;100519.03;6264698;22;45172;-84
2022/11/14 07:25:06;;;;;;;;;15.00;14.67;;;;;9.18;100.00;100516.22;6318967;22;45348;-83
2022/11/14 07:27:34;;;;;;;;;18.33;14.00;;;;;9.16;100.00;100531.22;6319600;22;45461;-83
2022/11/14 07:30:00;;;;;;;;;15.00;12.00;;;;;8.98;100.00;100500.84;6289971;22;47476;-83
2022/11/14 07:32:25;;;;;;;;;17.67;14.00;;;;;9.06;100.00;100521.31;6317114;22;45416;-82
2022/11/14 07:34:51;;;;;;;;;15.67;15.67;;;;;9.07;100.00;100517.78;6291994;22;45313;-84
2022/11/14 07:37:16;;;;;;;;;18.00;13.67;;;;;9.05;100.00;100524.81;6265543;22;45382;-84
2022/11/14 07:39:42;;;;;;;;;9.33;9.33;;;;;8.92;100.00;100498.09;6287126;22;46673;-83
2022/11/14 07:42:08;;;;;;;;;13.67;12.33;;;;;8.98;100.00;100502.63;6283385;22;44763;-84
2022/11/14 07:44:40;;;;;;;;;10.67;10.67;;;;;9.09;100.00;100508.09;6283875;22;45834;-83
2022/11/14 07:47:08;;;;;;;;;17.00;15.67;;;;;9.17;100.00;100515.34;6260975;22;45335;-83
2022/11/14 07:49:34;;;;;;;;;18.67;16.33;;;;;9.15;100.00;100508.19;6285789;22;46884;-84
2022/11/14 07:51:59;;;;;;;;;15.67;14.33;;;;;9.22;100.00;100523.34;6286823;22;44928;-84
2022/11/14 07:54:26;;;;;;;;;17.67;15.00;;;;;9.23;100.00;100518.94;6289468;22;45338;-84
2022/11/14 07:59:25;;;;;;;;;16.67;14.67;;;;;9.25;100.00;100515.47;6259398;22;45241;-82
2022/11/14 08:01:51;;;;;;;;;15.33;15.33;;;;;9.29;100.00;100506.69;6205989;22;45903;-85
2022/11/14 08:04:16;;;;;;;;;16.67;16.33;;;;;9.14;100.00;100475.47;6259440;22;45083;-85
2022/11/14 08:06:42;;;;;;;;;17.33;15.00;;;;;9.24;100.00;100492.44;6260236;22;45280;-83
2022/11/14 08:09:10;;;;;;;;;19.33;18.00;;;;;9.28;100.00;100504.88;6235542;22;46782;-85
2022/11/14 08:11:47;;;;;;;;;15.00;13.33;;;;;9.27;100.00;100505.75;6233625;22;45425;-82
2022/11/14 08:14:37;;;;;;;;;18.00;15.00;;;;;9.23;100.00;100509.22;6261156;22;45292;-86
2022/11/14 08:17:25;;;;;;;;;20.00;18.00;;;;;9.06;100.00;100474.47;6238553;22;44867;-84
2022/11/14 08:19:58;;;;;;;;;19.33;18.33;;;;;9.30;100.00;100511.09;6241071;22;45339;-83
2022/11/14 08:22:23;;;;;;;;;19.33;15.33;;;;;9.29;100.00;100509.34;6233044;22;45283;-84
2022/11/14 08:25:09;;;;;;;;;17.67;16.00;;;;;9.29;100.00;100514.63;6239166;22;44724;-86
2022/11/14 08:33:30;;;;;;;;;19.67;18.00;;;;;9.10;100.00;100494.84;6185807;22;46633;-87
2022/11/14 08:36:11;;;;;;;;;14.67;14.00;;;;;9.06;100.00;100486.84;6110935;23;45278;-86
2022/11/14 08:38:45;;;;;;;;;18.00;18.00;;;;;8.99;100.00;100462.88;6280874;22;44794;-85
2022/11/14 08:41:14;;;;;;;;;20.33;18.33;;;;;9.17;100.00;100491.44;6263109;22;45342;-86
2022/11/14 08:43:41;;;;;;;;;21.67;18.33;;;;;9.41;100.00;100506.88;6266460;22;45282;-85
2022/11/14 08:46:10;;;;;;;;;22.00;19.33;;;;;9.21;100.00;100463.22;6292538;22;45350;-85
2022/11/14 08:48:42;;;;;;;;;23.33;21.33;;;;;9.46;100.00;100484.81;6265968;22;44822;-85
2022/11/14 08:51:12;;;;;;;;;15.67;11.67;;;;;9.45;100.00;100475.03;6266179;22;47361;-85
2022/11/14 09:03:24;;;;;;;;;23.33;18.33;;;;;9.56;100.00;100515.91;6051140;23;45306;-85
2022/11/14 09:12:41;;;;;;;;;22.33;18.33;;;;;9.77;100.00;100513.53;5879438;24;45344;-85
2022/11/14 09:15:27;;;;;;;;;21.67;21.00;;;;;9.76;100.00;100506.47;5962917;23;45483;-85
2022/11/14 09:25:29;;;;;;;;;;;;;;;;;;;;;
2022/11/14 09:31:46;;;;;;;;;27.33;23.33;;;;;9.60;100.00;100462.00;5967241;23;45255;-86
2022/11/14 09:48:30;;;;;;;;;20.00;20.00;;;;;9.77;100.00;100436.53;6247537;22;44763;-86
2022/11/14 09:52:01;;;;;;;;;;;;;;;;;;;;;
2022/11/14 10:52:08;;;;;;;;;23.33;22.33;;;;;10.26;100.00;100457.47;6167604;23;45356;-85
2022/11/14 10:55:09;;;;;;;;;22.33;20.67;;;;;10.00;100.00;100406.72;6071569;23;44898;-85
2022/11/14 10:57:37;;;;;;;;;28.00;28.00;;;;;10.33;100.00;100463.78;6052364;23;47092;-86
2022/11/14 11:03:19;;;;;;;;;30.00;25.67;;;;;10.33;100.00;100432.75;6080025;23;45278;-83
2022/11/14 12:16:48;;;;;;;;;33.67;29.00;;;;;11.82;100.00;100342.34;6260360;22;45165;-86
2022/11/14 12:23:14;;;;;;;;;34.67;32.00;;;;;11.85;100.00;100341.44;6260765;22;45360;-84
2022/11/14 12:26:27;;;;;;;;;;;;;;;;;;;;;
2022/11/14 12:29:18;;;;;;;;;32.67;31.67;;;;;11.91;100.00;100338.84;6139367;23;74680;-85
2022/11/14 12:31:55;;;;;;;;;37.00;32.00;;;;;11.90;100.00;100326.41;6169977;23;45300;-85
2022/11/14 12:34:45;;;;;;;;;24.67;23.00;;;;;11.84;100.00;100297.06;6168146;23;45441;-85
2022/11/14 12:37:32;;;;;;;;;30.67;28.33;;;;;12.07;100.00;100313.09;6168214;23;45320;-84
2022/11/14 12:47:09;;;;;;;;;32.00;32.00;;;;;12.23;100.00;100320.22;6164240;23;45375;-85
2022/11/14 12:49:55;;;;;;;;;31.33;31.33;;;;;12.21;100.00;100309.53;6165665;23;45126;-86
2022/11/14 12:53:14;;;;;;;;;26.67;23.67;;;;;12.33;100.00;100306.00;6165637;23;46633;-87
2022/11/14 12:55:52;;;;;;;;;39.67;36.00;;;;;12.42;100.00;100310.44;6083247;23;45442;-85
2022/11/14 12:59:13;;;;;;;;;27.67;23.00;;;;;12.25;100.00;100265.13;6106727;23;44729;-88
2022/11/14 13:05:45;;;;;;;;;25.67;23.33;;;;;12.92;100.00;100312.13;6078248;23;45137;-85
2022/11/14 13:09:22;;;;;;;;;21.00;19.67;;;;;13.05;100.00;100301.41;6079467;23;45382;-86
2022/11/14 13:29:59;;;;;;;;;22.67;22.67;;;;;13.85;100.00;100279.69;6166944;23;45514;-88
2022/11/14 13:32:43;;;;;;;;;20.00;17.00;;;;;13.80;100.00;100277.94;6077612;23;45464;-89
2022/11/14 13:39:11;;;;;;;;;21.00;20.67;;;;;14.00;100.00;100285.84;6076948;23;45065;-87
2022/11/14 13:53:27;;;;;;;;;;;;;;;;;;;;;
2022/11/14 13:56:08;;;;;;;;;19.67;19.67;;;;;14.39;100.00;100253.41;5961810;23;45353;-87
2022/11/14 13:59:08;;;;;;;;;21.33;20.00;;;;;14.36;100.00;100248.09;5939811;23;47147;-88
2022/11/14 14:07:55;;;;;;;;;20.33;20.33;;;;;14.37;100.00;100242.72;6263500;22;46133;-87
2022/11/14 14:11:12;;;;;;;;;;;;;;;;;;;;;
2022/11/14 14:14:19;;;;;;;;;21.33;20.00;;;;;14.39;100.00;100235.56;6289061;22;71989;-86
2022/11/14 14:17:08;;;;;;;;;18.67;17.67;;;;;14.40;100.00;100237.34;6251829;22;45254;-88
2022/11/14 14:20:19;;;;;;;;;19.00;17.67;;;;;14.36;100.00;100234.72;6265397;22;45526;-87
2022/11/14 14:23:28;;;;;;;;;25.67;25.00;;;;;14.31;100.00;100241.91;6262505;22;46196;-86
2022/11/14 14:26:31;;;;;;;;;22.00;22.00;;;;;14.16;100.00;100211.72;6262084;22;45443;-87
2022/11/14 14:32:29;;;;;;;;;27.00;24.33;;;;;14.04;100.00;100187.78;6260653;22;45264;-87
2022/11/14 14:34:57;;;;;;;;;21.67;21.00;;;;;14.12;100.00;100211.78;6236552;22;47013;-86
2022/11/14 14:40:58;;;;;;;;;22.33;21.67;;;;;14.42;100.00;100237.31;6237763;22;46090;-87
2022/11/14 14:47:39;;;;;;;;;19.00;18.67;;;;;14.57;100.00;100236.34;5965054;23;44908;-87
2022/11/14 14:50:42;;;;;;;;;20.33;19.33;;;;;14.50;100.00;100222.09;5964064;23;45421;-88
2022/11/14 14:53:26;;;;;;;;;18.00;18.00;;;;;14.55;100.00;100217.56;5931663;23;44814;-87
2022/11/14 15:01:27;;;;;;;;;16.00;15.67;;;;;14.67;100.00;100221.94;6246519;22;46595;-86
2022/11/14 15:04:10;;;;;;;;;21.67;18.33;;;;;14.62;100.00;100212.19;6228330;22;45321;-85
2022/11/14 15:07:38;;;;;;;;;;;;;;;;;;;;;
2022/11/14 15:10:44;;;;;;;;;22.67;18.00;;;;;14.39;100.00;100198.13;6250776;22;74444;-87
2022/11/14 15:13:40;;;;;;;;;22.33;19.67;;;;;14.56;100.00;100238.13;6117759;23;44878;-87
2022/11/14 15:16:54;;;;;;;;;;;;;;;;;;;;;
2022/11/14 15:34:48;;;;;;;;;14.00;14.00;;;;;14.21;100.00;100233.94;6293924;22;45760;-84
2022/11/14 15:37:24;;;;;;;;;18.00;18.00;;;;;14.23;100.00;100241.09;6264305;22;44794;-84
2022/11/14 15:40:42;;;;;;;;;20.67;19.33;;;;;14.23;100.00;100233.06;6288631;22;45384;-84
2022/11/14 15:43:37;;;;;;;;;21.67;21.00;;;;;14.26;100.00;100238.38;6238846;22;45179;-85
2022/11/14 15:46:23;;;;;;;;;22.67;19.33;;;;;14.17;100.00;100224.19;6289366;22;45202;-85
2022/11/14 15:48:49;;;;;;;;;20.33;19.00;;;;;14.29;100.00;100241.91;6262871;22;45339;-84
2022/11/14 15:51:20;;;;;;;;;20.67;20.00;;;;;14.19;100.00;100234.88;6262970;22;45350;-85
2022/11/14 15:53:55;;;;;;;;;19.33;17.67;;;;;14.16;100.00;100238.47;6292229;22;44732;-85
2022/11/14 15:56:29;;;;;;;;;21.67;18.00;;;;;14.06;100.00;100235.88;6288190;22;45305;-85
2022/11/14 15:58:55;;;;;;;;;20.00;18.67;;;;;13.99;100.00;100230.56;6263243;22;45020;-87
2022/11/14 16:01:27;;;;;;;;;23.33;22.33;;;;;14.07;100.00;100254.56;6265983;22;45306;-86
2022/11/14 16:04:02;;;;;;;;;20.00;19.67;;;;;13.85;100.00;100223.56;6261560;22;45319;-85
2022/11/14 16:06:31;;;;;;;;;17.67;17.67;;;;;14.02;100.00;100256.41;6263148;22;47727;-86
2022/11/14 16:09:06;;;;;;;;;22.67;18.00;;;;;13.77;100.00;100218.28;6261908;22;45228;-85
2022/11/14 16:11:32;;;;;;;;;18.67;18.67;;;;;13.87;100.00;100245.84;6265145;22;45243;-85
2022/11/14 16:14:07;;;;;;;;;18.00;16.00;;;;;13.67;100.00;100227.25;6266307;22;45345;-86
2022/11/14 16:16:33;;;;;;;;;18.00;18.00;;;;;13.67;100.00;100228.13;6293586;22;47059;-86
2022/11/14 16:18:59;;;;;;;;;18.67;18.67;;;;;13.87;100.00;100272.56;6266897;22;45170;-86